Arlington, VA

7:09 PM EDT on September 03, 2015 (GMT -0400)
Ashton Heights | | Change Station
CLOSE
Current Station
Personal Weather Station
Location: Arlington, VA
Elevation: 280 ft
Nearby Weather Stations

Elev 280 ft 38.88 °N, 77.10 °W | Updated 9 minutes ago

Partly Cloudy
Partly Cloudy
86.0 °F
Feels Like 97 °F
N
1.6
Wind Variable Wind from SE
Gusts 3.1 mph

Today
High -- | Low -- °F
--% Chance of Precip.
Yesterday
High -- | Low -- °F
Precip. -- in
6:38 AM 7:36 PM
Waning Gibbous, 66% visible
Pressure 29.86 in
Visibility 10.0 miles
Clouds Scattered Clouds 6000 ft
Scattered Clouds 10000 ft
Mostly Cloudy 25000 ft
Heat Index 97 °F
Dew Point 77 °F
Humidity 75%
Rainfall 0.00 in
Snow Depth Not available.
UV 0 out of 12
Pollen 10.50 out of 12
Air Quality Not available.
Flu Activity Not available.
METAR KDCA 032252Z 17004KT 10SM SCT060 SCT100 BKN250 28/21 A2986 RMK AO2 WSHFT 2143 TSE10RAB2158E04 SLP110 CB DSNT NE MOV S P0000 T02830206
Pressure 29.86 in
Visibility 10.0 miles
Clouds Scattered Clouds 6000 ft
Scattered Clouds 10000 ft
Mostly Cloudy 25000 ft
Heat Index 97 °F
Dew Point 77 °F
Humidity 75%
Rainfall 0.00 in
Snow Depth Not available.
UV 0 out of 12
Pollen 10.50 out of 12
Air Quality Not available.
Flu Activity Not available.
METAR KDCA 032252Z 17004KT 10SM SCT060 SCT100 BKN250 28/21 A2986 RMK AO2 WSHFT 2143 TSE10RAB2158E04 SLP110 CB DSNT NE MOV S P0000 T02830206

10-Day Weather Forecast

×

Almanac

Astronomy

Sep. 03, 2015 Rise Set
Actual Time
Civil Twilight
Nautical Twilight
Astronomical Twilight
Moon
Length of Visible Light
Length of Day
Tomorrow will be .
, % of the Moon is Illuminated

Today's Extremes

State Highs State Lows

Community

WunderPhotos

Upload Photos

1,852,058 photos uploaded!

WunderBlogs® & News

Nearby

Air Quality

  Air Quality AQ Index Pollutant
Not available.

Snow Depth

Station Depth Elevation

Earthquake Activity

City Distance Mag. Time & Date
Minimum magnitude displayed is 2.5.

Coastal Water Temperatures

Place Temperature

Stations

Nearby Weather Stations

Station Location Temp. Windchill Dew Point Humidity Wind Precip. Elev Updated Type